Grider Field
KPBF : rendu visible

Aérodrome :











RETROUVEZ-NOUS SUR...

 
LOGIN :

S'inscrire | Disclaimer

   EN    FR    IT 

 









Légende :    VFR   VFR Marginal   IFR   IFR Intensif   IFR Très Intensif
Visi : 
Plafond : 
>= 8 km
>= 3000ft
5 à 8 km
1000 à 3000 ft
1500m à 5 km
500 à 1000 ft
800 à 1500m
200 à 500 ft
< 800m
< 200 ft
Symboles :   Orages  Brouillard  Fortes neiges  Fortes précipitations  Vent > 20 kt






- Altitude de l'aérodrome : 206 ft


KPBF - Grider Field

DERNIER METAR :
  • 081853Z AUTO 20008KT 10SM SCT018 BKN024 OVC031 26/22 A2981 RMK AO2 SLP090 T02610217

METARs EXPIRÉS :
  • 081818Z AUTO 21007KT 8SM SCT013 BKN019 OVC026 25/21 A2982 RMK AO2 T02500211
  • 081753Z AUTO VRB06KT 7SM BKN012 OVC021 24/21 A2982 RMK AO2 SLP096 T02440211 10244 20206 58005
  • 081653Z AUTO 20007KT 6SM HZ OVC012 24/21 A2985 RMK AO2 SLP107 T02390211

TAF KPBF
Valide du 08 à 18h jusqu'au 09 à 18h UTC


081732Z 0818/0918 21010KT 6SM BR BKN012
TEMPO 0818/0820 SCT015 BKN250
FM082000 22011KT P6SM SCT020 BKN250
FM090500 22010KT P6SM VCTS BKN030CB BKN250
PROB30 0905/0908 2SM TSRA BKN020CB
FM091400 01010KT P6SM BKN250



MET'MAP, la Météo Aéronautique d'un coup d'oeil ! - Copyright ORBIFLY Décembre 2007 - Disclaimer

ORBIFLY MET'MAP TEAM :

Programmation & Développement : Alexandra Zaïnal
Sur une idée originale de : Baudouin d'Aumeries
Assistance à la programmation : Marc-Olivier Méhu
Soutien technique & logistique : Manuel Goepfert

Contact : metmap@orbifly.com




SOURCES & CREDITS :

   NOAA       Earth
Advisory